»·PEaware :: N73910 KPSC-KBLI

N73910 :: KPSC-KBLI

FLIGHT INFORMATION

Flight Status: Arrived
Operator: Privately registered:
United States
More flights under this callsign
Pilot: Chris W. (27727)
Aircraft: CESSNA R182 TURBO SKYLANE
(C82R)
More flights by this aircraft type
Origin: KPSC Tri-Cities
United States
Destination: KBLI Bellingham Intl
United States
More flights between these airports :: More routes between these airports
Route:
File this flight plan on PilotEdge
Remarks:
Altitude:
(Current/Filed)
10,500ft
Speed:
(Current/Filed)
0kts
Departed: 27-Jun-23 05:13 PM
Arrived: 27-Jun-23 06:44 PM
Distance/Time
Traveled:
205nm/1:31
Distance/Time
To Go:
Arrived

Flight Plot

Page will automatically refresh every two minutes.

Flight plan parsing failed; only flown route is shown


Map Options




Map Legend


Flown Route
Filed Route
Departure Airport
Arrival Airport
Navaid (VOR, NDB)
Fix

Horizontal Profiles

Position Reports

Time Latitude Longitude Heading Altitude Ground
Speed
27-Jun-23 17:04 46.258483 -119.111913 136 405ft 0kts
27-Jun-23 17:05 46.258483 -119.111913 136 405ft 0kts
27-Jun-23 17:06 46.258483 -119.111913 136 405ft 0kts
27-Jun-23 17:07 46.258733 -119.111878 349 405ft 7kts
27-Jun-23 17:08 46.262100 -119.114268 318 404ft 15kts
27-Jun-23 17:09 46.265675 -119.112309 47 405ft 21kts
27-Jun-23 17:10 46.268736 -119.109316 314 408ft 12kts
27-Jun-23 17:11 46.269745 -119.110663 311 406ft 8kts
27-Jun-23 17:12 46.268739 -119.114634 226 405ft 48kts
27-Jun-23 17:13 46.255970 -119.135393 251 1021ft 76kts
27-Jun-23 17:14 46.268725 -119.161064 322 1738ft 90kts
27-Jun-23 17:15 46.281715 -119.173838 323 2290ft 88kts
27-Jun-23 17:17 46.282564 -119.174647 324 2322ft 88kts
27-Jun-23 17:18 46.330298 -119.223342 323 4264ft 93kts
27-Jun-23 17:19 46.351529 -119.245053 324 5067ft 93kts
27-Jun-23 17:20 46.371763 -119.267866 321 5831ft 92kts
27-Jun-23 17:21 46.391709 -119.291574 321 6493ft 93kts
27-Jun-23 17:22 46.411597 -119.316105 321 7046ft 93kts
27-Jun-23 17:23 46.431215 -119.341311 321 7581ft 95kts
27-Jun-23 17:24 46.450873 -119.367548 321 8110ft 97kts
27-Jun-23 17:25 46.470550 -119.394585 321 8622ft 98kts
27-Jun-23 17:26 46.490270 -119.422221 322 9136ft 99kts
27-Jun-23 17:27 46.510073 -119.450488 322 9627ft 99kts
27-Jun-23 17:28 46.529799 -119.478868 321 10069ft 100kts
27-Jun-23 17:29 46.549622 -119.507368 322 10473ft 105kts
27-Jun-23 17:30 46.575282 -119.540603 326 10487ft 137kts
27-Jun-23 17:31 46.605582 -119.577844 326 10476ft 145kts
27-Jun-23 17:32 46.635727 -119.612776 325 10477ft 149kts
27-Jun-23 17:33 46.657643 -119.637226 327 10478ft 150kts
27-Jun-23 17:34 46.691617 -119.673163 328 10467ft 151kts
27-Jun-23 17:35 46.725817 -119.709132 328 10464ft 152kts
27-Jun-23 17:36 46.760473 -119.745330 328 10459ft 152kts
27-Jun-23 17:37 46.794689 -119.780816 328 10464ft 150kts
27-Jun-23 17:38 46.828823 -119.816009 328 10462ft 150kts
27-Jun-23 17:39 46.862016 -119.853361 323 10466ft 151kts
27-Jun-23 17:40 46.893942 -119.893980 319 10472ft 153kts
27-Jun-23 17:41 46.924893 -119.937109 319 10473ft 153kts
27-Jun-23 17:42 46.955793 -119.980337 319 10476ft 153kts
27-Jun-23 17:43 46.986867 -120.023851 319 10479ft 156kts
27-Jun-23 17:44 47.015246 -120.072157 311 10484ft 155kts
27-Jun-23 17:45 47.041898 -120.121501 317 10495ft 155kts
27-Jun-23 17:46 47.074296 -120.163898 320 10499ft 155kts
27-Jun-23 17:46 47.101070 -120.199229 321 10503ft 156kts
27-Jun-23 17:48 47.139088 -120.249312 320 10508ft 158kts
27-Jun-23 17:49 47.171626 -120.292863 320 10512ft 159kts
27-Jun-23 17:50 47.204499 -120.336516 320 10493ft 160kts
27-Jun-23 17:51 47.237450 -120.379746 320 10496ft 158kts
27-Jun-23 17:51 47.264605 -120.415294 320 10498ft 157kts
27-Jun-23 17:52 47.298088 -120.458652 320 10506ft 163kts
27-Jun-23 17:53 47.332018 -120.502142 320 10500ft 159kts
27-Jun-23 17:55 47.368644 -120.552816 317 10517ft 157kts
27-Jun-23 17:55 47.395316 -120.591393 317 10524ft 157kts
27-Jun-23 17:56 47.426792 -120.636738 317 10526ft 157kts
27-Jun-23 17:57 47.458931 -120.679757 326 10527ft 154kts
27-Jun-23 17:58 47.492246 -120.719845 320 10541ft 157kts
27-Jun-23 18:00 47.530014 -120.769872 319 10548ft 154kts
27-Jun-23 18:00 47.556644 -120.805597 319 10550ft 155kts
27-Jun-23 18:01 47.588646 -120.848403 319 10560ft 155kts
27-Jun-23 18:02 47.620635 -120.890929 319 10568ft 153kts
27-Jun-23 18:03 47.652563 -120.933287 319 10577ft 153kts
27-Jun-23 18:04 47.684112 -120.975976 317 10585ft 153kts
27-Jun-23 18:05 47.713994 -121.020676 314 10589ft 152kts
27-Jun-23 18:06 47.744680 -121.063595 318 10599ft 151kts
27-Jun-23 18:07 47.775418 -121.106616 318 10606ft 151kts
27-Jun-23 18:08 47.806031 -121.149375 318 10610ft 151kts
27-Jun-23 18:09 47.836456 -121.191961 318 10616ft 149kts
27-Jun-23 18:10 47.866704 -121.234471 318 10622ft 149kts
27-Jun-23 18:11 47.896856 -121.277045 318 10626ft 149kts
27-Jun-23 18:12 47.928051 -121.317537 322 10627ft 148kts
27-Jun-23 18:13 47.959482 -121.356466 322 10635ft 147kts
27-Jun-23 18:14 47.991472 -121.395867 323 10636ft 149kts
27-Jun-23 18:15 48.021049 -121.437263 316 10637ft 144kts
27-Jun-23 18:16 48.049679 -121.481061 315 10642ft 149kts
27-Jun-23 18:17 48.077785 -121.526152 319 10646ft 147kts
27-Jun-23 18:18 48.108690 -121.566750 322 10640ft 148kts
27-Jun-23 18:19 48.139420 -121.606038 322 10637ft 144kts
27-Jun-23 18:20 48.170382 -121.645673 322 10646ft 148kts
27-Jun-23 18:21 48.201436 -121.685049 322 10644ft 147kts
27-Jun-23 18:22 48.232127 -121.724021 322 10645ft 144kts
27-Jun-23 18:23 48.263273 -121.763224 322 10647ft 147kts
27-Jun-23 18:24 48.294703 -121.803043 320 10641ft 146kts
27-Jun-23 18:25 48.325080 -121.846730 319 10208ft 162kts
27-Jun-23 18:26 48.359021 -121.895017 319 9436ft 170kts
27-Jun-23 18:27 48.393549 -121.943851 319 8627ft 170kts
27-Jun-23 18:28 48.431419 -121.984159 315 7752ft 173kts
27-Jun-23 18:29 48.463425 -122.037231 314 7097ft 170kts
27-Jun-23 18:30 48.495680 -122.089662 314 6534ft 171kts
27-Jun-23 18:31 48.526892 -122.144207 302 5929ft 173kts
27-Jun-23 18:32 48.551647 -122.206144 302 5336ft 171kts
27-Jun-23 18:33 48.576323 -122.267788 303 4749ft 170kts
27-Jun-23 18:34 48.600847 -122.328760 302 4147ft 170kts
27-Jun-23 18:35 48.626080 -122.389358 303 3556ft 170kts
27-Jun-23 18:36 48.652153 -122.449780 303 2958ft 174kts
27-Jun-23 18:37 48.690070 -122.491154 9 2352ft 184kts
27-Jun-23 18:38 48.739536 -122.476871 8 1675ft 169kts
27-Jun-23 18:39 48.774395 -122.496747 318 1320ft 114kts
27-Jun-23 18:40 48.798733 -122.520997 6 1241ft 110kts
27-Jun-23 18:41 48.826146 -122.521122 286 650ft 102kts
27-Jun-23 18:42 48.815472 -122.537540 175 496ft 66kts
27-Jun-23 18:43 48.799901 -122.537511 177 169ft 39kts
27-Jun-23 18:44 48.794117 -122.535147 141 170ft 20kts
27-Jun-23 18:45 48.793177 -122.533488 291 170ft 0kts
27-Jun-23 18:46 48.793177 -122.533488 291 170ft 0kts

Navigation Log

Ident Type
Flight plan parsing failed, navigation log unavailable